sensor_id;sensor_type;location;lat;lon;timestamp;pressure;altitude;pressure_sealevel;temperature;humidity
72428;BME280;60419;48.880;18.036;2022-12-10T00:02:33;97533.47;;;3.77;81.56
72428;BME280;60419;48.880;18.036;2022-12-10T00:05:19;97532.66;;;3.49;83.71
72428;BME280;60419;48.880;18.036;2022-12-10T00:08:04;97535.81;;;3.79;82.77
72428;BME280;60419;48.880;18.036;2022-12-10T00:10:50;97537.19;;;4.54;79.91
72428;BME280;60419;48.880;18.036;2022-12-10T00:13:36;97534.16;;;5.14;78.14
72428;BME280;60419;48.880;18.036;2022-12-10T00:16:24;97542.59;;;5.62;76.08
72428;BME280;60419;48.880;18.036;2022-12-10T00:19:10;97529.56;;;5.77;74.90
72428;BME280;60419;48.880;18.036;2022-12-10T00:21:55;97541.03;;;6.27;73.73
72428;BME280;60419;48.880;18.036;2022-12-10T00:24:40;97534.72;;;6.40;72.29
72428;BME280;60419;48.880;18.036;2022-12-10T00:27:26;97537.44;;;6.57;72.11
72428;BME280;60419;48.880;18.036;2022-12-10T00:30:11;97535.22;;;6.51;71.98
72428;BME280;60419;48.880;18.036;2022-12-10T00:32:57;97541.81;;;6.18;72.90
72428;BME280;60419;48.880;18.036;2022-12-10T00:35:42;97545.41;;;6.05;73.37
72428;BME280;60419;48.880;18.036;2022-12-10T00:38:28;97548.13;;;6.40;72.47
72428;BME280;60419;48.880;18.036;2022-12-10T00:41:14;97558.59;;;6.67;71.79
72428;BME280;60419;48.880;18.036;2022-12-10T00:44:00;97561.13;;;6.64;71.12
72428;BME280;60419;48.880;18.036;2022-12-10T00:46:45;97567.59;;;6.72;71.80
72428;BME280;60419;48.880;18.036;2022-12-10T00:49:30;97575.47;;;6.68;71.16
72428;BME280;60419;48.880;18.036;2022-12-10T00:52:16;97563.78;;;6.73;71.56
72428;BME280;60419;48.880;18.036;2022-12-10T00:55:01;97572.13;;;6.36;72.15
72428;BME280;60419;48.880;18.036;2022-12-10T00:57:47;97579.09;;;6.55;71.87
72428;BME280;60419;48.880;18.036;2022-12-10T01:00:32;97568.38;;;6.72;71.17
72428;BME280;60419;48.880;18.036;2022-12-10T01:03:18;97574.38;;;6.69;70.83
72428;BME280;60419;48.880;18.036;2022-12-10T01:08:58;97583.97;;;5.47;74.92
72428;BME280;60419;48.880;18.036;2022-12-10T01:11:45;97591.13;;;6.00;73.33
72428;BME280;60419;48.880;18.036;2022-12-10T01:14:32;97591.56;;;5.93;73.77
72428;BME280;60419;48.880;18.036;2022-12-10T01:17:18;97586.94;;;5.76;74.62
72428;BME280;60419;48.880;18.036;2022-12-10T01:20:04;97594.13;;;5.36;75.86
72428;BME280;60419;48.880;18.036;2022-12-10T01:22:49;97591.22;;;4.65;78.77
72428;BME280;60419;48.880;18.036;2022-12-10T01:25:35;97606.25;;;5.33;77.12
72428;BME280;60419;48.880;18.036;2022-12-10T01:28:20;97595.91;;;4.96;76.87
72428;BME280;60419;48.880;18.036;2022-12-10T01:31:14;97584.00;;;5.24;75.94
72428;BME280;60419;48.880;18.036;2022-12-10T01:34:01;97581.81;;;5.57;74.81
72428;BME280;60419;48.880;18.036;2022-12-10T01:36:50;97576.22;;;5.76;74.49
72428;BME280;60419;48.880;18.036;2022-12-10T01:39:36;97573.81;;;4.90;74.13
72428;BME280;60419;48.880;18.036;2022-12-10T01:42:22;97570.59;;;4.79;74.28
72428;BME280;60419;48.880;18.036;2022-12-10T01:45:10;97586.44;;;4.76;74.65
72428;BME280;60419;48.880;18.036;2022-12-10T01:47:56;97598.97;;;4.66;74.66
72428;BME280;60419;48.880;18.036;2022-12-10T01:50:42;97583.13;;;4.56;75.23
72428;BME280;60419;48.880;18.036;2022-12-10T01:53:27;97593.16;;;4.87;74.21
72428;BME280;60419;48.880;18.036;2022-12-10T01:56:15;97598.13;;;5.16;73.56
72428;BME280;60419;48.880;18.036;2022-12-10T01:59:01;97583.53;;;4.49;74.93
72428;BME280;60419;48.880;18.036;2022-12-10T02:08:19;97585.59;;;5.03;72.96
72428;BME280;60419;48.880;18.036;2022-12-10T02:14:17;97576.88;;;3.97;75.79
72428;BME280;60419;48.880;18.036;2022-12-10T02:17:19;97574.09;;;3.60;74.97
72428;BME280;60419;48.880;18.036;2022-12-10T02:23:04;97573.03;;;3.75;75.25
72428;BME280;60419;48.880;18.036;2022-12-10T02:31:48;97575.91;;;3.65;74.25
72428;BME280;60419;48.880;18.036;2022-12-10T02:34:42;97602.00;;;3.22;75.09
72428;BME280;60419;48.880;18.036;2022-12-10T02:37:31;97605.16;;;3.10;75.52
72428;BME280;60419;48.880;18.036;2022-12-10T02:40:30;97612.31;;;3.28;74.86
72428;BME280;60419;48.880;18.036;2022-12-10T02:43:17;97607.75;;;3.75;73.55
72428;BME280;60419;48.880;18.036;2022-12-10T02:46:03;97617.16;;;3.87;73.25
72428;BME280;60419;48.880;18.036;2022-12-10T02:48:50;97595.97;;;3.76;73.54
72428;BME280;60419;48.880;18.036;2022-12-10T02:51:36;97614.47;;;3.59;73.21
72428;BME280;60419;48.880;18.036;2022-12-10T02:54:40;97628.25;;;3.14;74.42
72428;BME280;60419;48.880;18.036;2022-12-10T02:58:05;97619.81;;;3.59;73.75
72428;BME280;60419;48.880;18.036;2022-12-10T03:01:02;97635.75;;;3.64;72.80
72428;BME280;60419;48.880;18.036;2022-12-10T03:04:59;97644.81;;;3.49;73.73
72428;BME280;60419;48.880;18.036;2022-12-10T03:07:27;97631.16;;;3.18;73.88
72428;BME280;60419;48.880;18.036;2022-12-10T03:10:28;97636.28;;;2.95;74.74
72428;BME280;60419;48.880;18.036;2022-12-10T03:13:16;97620.75;;;3.16;74.71
72428;BME280;60419;48.880;18.036;2022-12-10T03:16:04;97609.25;;;3.02;74.40
72428;BME280;60419;48.880;18.036;2022-12-10T03:18:52;97588.34;;;2.90;75.18
72428;BME280;60419;48.880;18.036;2022-12-10T03:21:41;97604.31;;;2.77;74.87
72428;BME280;60419;48.880;18.036;2022-12-10T03:24:27;97621.06;;;2.96;73.93
72428;BME280;60419;48.880;18.036;2022-12-10T03:27:13;97648.22;;;3.36;72.92
72428;BME280;60419;48.880;18.036;2022-12-10T03:30:00;97653.88;;;3.15;73.36
72428;BME280;60419;48.880;18.036;2022-12-10T03:32:46;97672.25;;;3.17;72.46
72428;BME280;60419;48.880;18.036;2022-12-10T03:35:32;97649.72;;;3.09;73.41
72428;BME280;60419;48.880;18.036;2022-12-10T03:38:18;97695.78;;;2.96;72.98
72428;BME280;60419;48.880;18.036;2022-12-10T03:41:04;97702.91;;;3.01;73.57
72428;BME280;60419;48.880;18.036;2022-12-10T03:43:57;97699.47;;;2.81;73.09
72428;BME280;60419;48.880;18.036;2022-12-10T03:46:43;97688.34;;;2.74;74.00
72428;BME280;60419;48.880;18.036;2022-12-10T03:49:28;97700.69;;;2.89;73.42
72428;BME280;60419;48.880;18.036;2022-12-10T03:52:14;97716.38;;;2.90;72.87
72428;BME280;60419;48.880;18.036;2022-12-10T03:54:59;97703.50;;;2.79;73.36
72428;BME280;60419;48.880;18.036;2022-12-10T03:57:44;97685.47;;;2.70;73.57
72428;BME280;60419;48.880;18.036;2022-12-10T04:00:30;97682.06;;;2.65;73.51
72428;BME280;60419;48.880;18.036;2022-12-10T04:03:15;97673.56;;;2.63;74.46
72428;BME280;60419;48.880;18.036;2022-12-10T04:06:07;97680.50;;;3.02;73.46
72428;BME280;60419;48.880;18.036;2022-12-10T04:08:52;97682.50;;;2.91;72.89
72428;BME280;60419;48.880;18.036;2022-12-10T04:11:38;97663.47;;;3.16;71.64
72428;BME280;60419;48.880;18.036;2022-12-10T04:14:24;97665.19;;;3.59;71.98
72428;BME280;60419;48.880;18.036;2022-12-10T04:17:31;97659.00;;;3.45;71.45
72428;BME280;60419;48.880;18.036;2022-12-10T04:20:17;97651.88;;;2.69;73.56
72428;BME280;60419;48.880;18.036;2022-12-10T04:23:22;97658.13;;;3.35;72.54
72428;BME280;60419;48.880;18.036;2022-12-10T04:26:26;97646.03;;;2.86;74.47
72428;BME280;60419;48.880;18.036;2022-12-10T04:29:30;97641.69;;;2.90;74.53
72428;BME280;60419;48.880;18.036;2022-12-10T04:32:16;97655.44;;;3.35;73.14
72428;BME280;60419;48.880;18.036;2022-12-10T04:35:01;97662.28;;;3.88;70.77
72428;BME280;60419;48.880;18.036;2022-12-10T04:37:47;97665.56;;;4.26;69.85
72428;BME280;60419;48.880;18.036;2022-12-10T04:40:32;97653.47;;;4.15;69.20
72428;BME280;60419;48.880;18.036;2022-12-10T04:43:17;97673.03;;;4.80;68.01
72428;BME280;60419;48.880;18.036;2022-12-10T04:46:03;97663.81;;;5.22;67.14
72428;BME280;60419;48.880;18.036;2022-12-10T04:48:48;97656.44;;;4.91;67.61
72428;BME280;60419;48.880;18.036;2022-12-10T04:51:33;97667.06;;;4.97;67.19
72428;BME280;60419;48.880;18.036;2022-12-10T04:54:19;97674.22;;;4.87;67.43
72428;BME280;60419;48.880;18.036;2022-12-10T04:57:06;97674.09;;;4.42;68.17
72428;BME280;60419;48.880;18.036;2022-12-10T04:59:51;97687.41;;;4.70;67.87
72428;BME280;60419;48.880;18.036;2022-12-10T05:02:37;97702.97;;;4.13;67.98
72428;BME280;60419;48.880;18.036;2022-12-10T05:05:22;97710.13;;;4.31;68.16
72428;BME280;60419;48.880;18.036;2022-12-10T05:08:07;97709.22;;;4.22;66.80
72428;BME280;60419;48.880;18.036;2022-12-10T05:10:53;97702.28;;;4.62;66.29
72428;BME280;60419;48.880;18.036;2022-12-10T05:13:39;97694.28;;;4.48;66.73
72428;BME280;60419;48.880;18.036;2022-12-10T05:16:26;97712.53;;;3.86;68.18
72428;BME280;60419;48.880;18.036;2022-12-10T05:19:12;97714.63;;;4.03;68.59
72428;BME280;60419;48.880;18.036;2022-12-10T05:21:57;97719.50;;;4.01;68.50
72428;BME280;60419;48.880;18.036;2022-12-10T05:25:01;97728.41;;;4.10;68.20
72428;BME280;60419;48.880;18.036;2022-12-10T05:27:47;97725.38;;;3.84;68.38
72428;BME280;60419;48.880;18.036;2022-12-10T05:30:34;97700.03;;;4.14;67.92
72428;BME280;60419;48.880;18.036;2022-12-10T05:33:19;97714.25;;;4.23;67.43
72428;BME280;60419;48.880;18.036;2022-12-10T05:36:05;97730.53;;;4.27;67.53
72428;BME280;60419;48.880;18.036;2022-12-10T05:38:52;97745.22;;;4.11;67.48
72428;BME280;60419;48.880;18.036;2022-12-10T05:41:38;97754.44;;;4.18;67.42
72428;BME280;60419;48.880;18.036;2022-12-10T05:44:24;97756.53;;;3.75;68.89
72428;BME280;60419;48.880;18.036;2022-12-10T05:47:09;97737.38;;;3.54;69.85
72428;BME280;60419;48.880;18.036;2022-12-10T05:49:55;97755.69;;;2.85;74.70
72428;BME280;60419;48.880;18.036;2022-12-10T05:52:40;97766.41;;;2.56;76.08
72428;BME280;60419;48.880;18.036;2022-12-10T05:55:25;97753.06;;;2.80;75.19
72428;BME280;60419;48.880;18.036;2022-12-10T05:58:13;97739.97;;;2.83;75.18
72428;BME280;60419;48.880;18.036;2022-12-10T06:00:58;97725.81;;;2.64;76.06
72428;BME280;60419;48.880;18.036;2022-12-10T06:03:44;97723.09;;;2.88;75.33
72428;BME280;60419;48.880;18.036;2022-12-10T06:06:33;97720.22;;;2.84;75.48
72428;BME280;60419;48.880;18.036;2022-12-10T06:09:19;97719.63;;;2.68;74.79
72428;BME280;60419;48.880;18.036;2022-12-10T06:12:04;97716.03;;;2.54;75.08
72428;BME280;60419;48.880;18.036;2022-12-10T06:14:50;97726.19;;;2.76;74.02
72428;BME280;60419;48.880;18.036;2022-12-10T06:17:35;97726.13;;;2.81;73.29
72428;BME280;60419;48.880;18.036;2022-12-10T06:20:22;97716.44;;;2.85;73.09
72428;BME280;60419;48.880;18.036;2022-12-10T06:23:09;97728.25;;;2.36;75.00
72428;BME280;60419;48.880;18.036;2022-12-10T06:25:54;97719.88;;;2.67;73.67
72428;BME280;60419;48.880;18.036;2022-12-10T06:28:41;97730.84;;;2.65;73.80
72428;BME280;60419;48.880;18.036;2022-12-10T06:31:27;97730.81;;;2.70;73.82
72428;BME280;60419;48.880;18.036;2022-12-10T06:34:12;97733.69;;;2.50;74.44
72428;BME280;60419;48.880;18.036;2022-12-10T06:36:57;97732.91;;;3.11;72.99
72428;BME280;60419;48.880;18.036;2022-12-10T06:39:43;97726.78;;;3.30;71.79
72428;BME280;60419;48.880;18.036;2022-12-10T06:42:28;97746.78;;;2.46;74.10
72428;BME280;60419;48.880;18.036;2022-12-10T06:45:14;97752.66;;;2.91;73.19
72428;BME280;60419;48.880;18.036;2022-12-10T06:47:59;97751.97;;;3.24;72.25
72428;BME280;60419;48.880;18.036;2022-12-10T06:50:45;97760.91;;;3.52;71.53
72428;BME280;60419;48.880;18.036;2022-12-10T06:53:31;97767.09;;;3.99;70.20
72428;BME280;60419;48.880;18.036;2022-12-10T06:56:18;97763.00;;;3.88;70.61
72428;BME280;60419;48.880;18.036;2022-12-10T06:59:05;97783.31;;;4.49;68.80
72428;BME280;60419;48.880;18.036;2022-12-10T07:01:51;97782.84;;;5.02;67.52
72428;BME280;60419;48.880;18.036;2022-12-10T07:04:36;97785.41;;;4.94;66.43
72428;BME280;60419;48.880;18.036;2022-12-10T07:07:22;97766.38;;;4.67;67.00
72428;BME280;60419;48.880;18.036;2022-12-10T07:10:07;97777.38;;;4.94;65.81
72428;BME280;60419;48.880;18.036;2022-12-10T07:12:53;97766.88;;;4.56;67.18
72428;BME280;60419;48.880;18.036;2022-12-10T07:15:38;97769.72;;;4.32;67.27
72428;BME280;60419;48.880;18.036;2022-12-10T07:18:24;97768.25;;;3.60;68.91
72428;BME280;60419;48.880;18.036;2022-12-10T07:21:33;97782.59;;;3.83;68.43
72428;BME280;60419;48.880;18.036;2022-12-10T07:24:19;97779.28;;;3.72;69.33
72428;BME280;60419;48.880;18.036;2022-12-10T07:27:06;97784.50;;;4.43;67.98
72428;BME280;60419;48.880;18.036;2022-12-10T07:29:51;97783.94;;;4.74;66.70
72428;BME280;60419;48.880;18.036;2022-12-10T07:32:37;97795.09;;;4.48;66.93
72428;BME280;60419;48.880;18.036;2022-12-10T07:35:22;97798.66;;;4.43;66.31
72428;BME280;60419;48.880;18.036;2022-12-10T07:38:07;97791.34;;;4.02;67.93
72428;BME280;60419;48.880;18.036;2022-12-10T07:40:53;97791.31;;;3.89;68.68
72428;BME280;60419;48.880;18.036;2022-12-10T07:43:41;97778.91;;;4.25;68.18
72428;BME280;60419;48.880;18.036;2022-12-10T07:46:29;97774.19;;;4.36;68.30
72428;BME280;60419;48.880;18.036;2022-12-10T07:49:15;97770.66;;;4.68;67.73
72428;BME280;60419;48.880;18.036;2022-12-10T07:52:02;97757.44;;;4.44;67.96
72428;BME280;60419;48.880;18.036;2022-12-10T07:54:47;97763.19;;;4.24;67.52
72428;BME280;60419;48.880;18.036;2022-12-10T07:57:32;97781.84;;;4.57;67.05
72428;BME280;60419;48.880;18.036;2022-12-10T08:00:18;97782.13;;;4.55;66.71
72428;BME280;60419;48.880;18.036;2022-12-10T08:03:03;97769.66;;;3.90;68.37
72428;BME280;60419;48.880;18.036;2022-12-10T08:05:49;97764.56;;;3.56;69.79
72428;BME280;60419;48.880;18.036;2022-12-10T08:08:35;97765.56;;;3.22;70.09
72428;BME280;60419;48.880;18.036;2022-12-10T08:11:22;97751.59;;;3.11;70.98
72428;BME280;60419;48.880;18.036;2022-12-10T08:14:07;97744.38;;;2.93;71.89
72428;BME280;60419;48.880;18.036;2022-12-10T08:16:53;97752.34;;;2.50;74.02
72428;BME280;60419;48.880;18.036;2022-12-10T08:19:38;97745.66;;;2.77;73.28
72428;BME280;60419;48.880;18.036;2022-12-10T08:22:24;97743.56;;;2.73;73.30
72428;BME280;60419;48.880;18.036;2022-12-10T08:25:09;97745.25;;;2.40;74.49
72428;BME280;60419;48.880;18.036;2022-12-10T08:27:54;97739.72;;;2.80;73.79
72428;BME280;60419;48.880;18.036;2022-12-10T08:30:40;97731.22;;;2.78;74.20
72428;BME280;60419;48.880;18.036;2022-12-10T08:33:32;97724.03;;;2.78;73.36
72428;BME280;60419;48.880;18.036;2022-12-10T08:36:18;97731.03;;;2.50;74.13
72428;BME280;60419;48.880;18.036;2022-12-10T08:39:04;97721.06;;;2.80;73.80
72428;BME280;60419;48.880;18.036;2022-12-10T08:41:49;97712.00;;;2.81;73.32
72428;BME280;60419;48.880;18.036;2022-12-10T08:44:34;97719.81;;;3.67;72.50
72428;BME280;60419;48.880;18.036;2022-12-10T08:47:20;97719.34;;;3.27;73.51
72428;BME280;60419;48.880;18.036;2022-12-10T08:50:05;97718.78;;;2.73;74.98
72428;BME280;60419;48.880;18.036;2022-12-10T08:52:51;97720.41;;;2.69;74.25
72428;BME280;60419;48.880;18.036;2022-12-10T08:55:39;97710.16;;;2.57;74.15
72428;BME280;60419;48.880;18.036;2022-12-10T08:58:25;97723.06;;;2.69;74.00
72428;BME280;60419;48.880;18.036;2022-12-10T09:01:16;97727.31;;;2.70;74.67
72428;BME280;60419;48.880;18.036;2022-12-10T09:04:02;97722.63;;;2.62;74.78
72428;BME280;60419;48.880;18.036;2022-12-10T09:06:47;97735.09;;;2.66;74.65
72428;BME280;60419;48.880;18.036;2022-12-10T09:09:33;97736.38;;;2.50;74.47
72428;BME280;60419;48.880;18.036;2022-12-10T09:12:18;97729.97;;;2.94;73.60
72428;BME280;60419;48.880;18.036;2022-12-10T09:15:05;97722.41;;;2.58;74.58
72428;BME280;60419;48.880;18.036;2022-12-10T09:17:50;97719.38;;;2.65;74.42
72428;BME280;60419;48.880;18.036;2022-12-10T09:20:36;97719.47;;;2.36;75.04
72428;BME280;60419;48.880;18.036;2022-12-10T09:23:22;97738.09;;;2.60;74.58
72428;BME280;60419;48.880;18.036;2022-12-10T09:26:09;97735.38;;;2.65;74.39
72428;BME280;60419;48.880;18.036;2022-12-10T09:28:55;97730.41;;;2.58;74.80
72428;BME280;60419;48.880;18.036;2022-12-10T09:31:42;97743.75;;;2.77;73.50
72428;BME280;60419;48.880;18.036;2022-12-10T09:34:28;97744.44;;;3.45;71.96
72428;BME280;60419;48.880;18.036;2022-12-10T09:37:13;97732.97;;;3.06;73.07
72428;BME280;60419;48.880;18.036;2022-12-10T09:39:59;97728.56;;;2.78;73.79
72428;BME280;60419;48.880;18.036;2022-12-10T09:52:22;97736.97;;;2.66;73.22
72428;BME280;60419;48.880;18.036;2022-12-10T09:55:14;97742.91;;;2.82;72.44
72428;BME280;60419;48.880;18.036;2022-12-10T09:58:03;97735.25;;;2.75;72.11
72428;BME280;60419;48.880;18.036;2022-12-10T10:00:57;97725.22;;;2.67;72.00
72428;BME280;60419;48.880;18.036;2022-12-10T10:03:43;97720.19;;;2.65;71.99
72428;BME280;60419;48.880;18.036;2022-12-10T10:06:28;97751.72;;;2.58;71.79
72428;BME280;60419;48.880;18.036;2022-12-10T10:09:14;97742.00;;;4.41;71.46
72428;BME280;60419;48.880;18.036;2022-12-10T10:12:00;97736.97;;;4.40;65.61
72428;BME280;60419;48.880;18.036;2022-12-10T10:14:46;97706.59;;;2.86;70.45
72428;BME280;60419;48.880;18.036;2022-12-10T10:17:35;97711.16;;;2.61;71.87
72428;BME280;60419;48.880;18.036;2022-12-10T10:20:21;97710.06;;;2.62;72.55
72428;BME280;60419;48.880;18.036;2022-12-10T10:23:08;97700.66;;;2.70;72.05
72428;BME280;60419;48.880;18.036;2022-12-10T10:25:53;97683.94;;;2.64;71.18
72428;BME280;60419;48.880;18.036;2022-12-10T10:28:40;97683.81;;;3.12;71.39
72428;BME280;60419;48.880;18.036;2022-12-10T10:31:29;97690.03;;;2.46;72.67
72428;BME280;60419;48.880;18.036;2022-12-10T10:34:18;97690.28;;;2.68;72.16
72428;BME280;60419;48.880;18.036;2022-12-10T10:37:04;97690.16;;;2.79;72.48
72428;BME280;60419;48.880;18.036;2022-12-10T10:39:51;97680.41;;;2.69;72.35
72428;BME280;60419;48.880;18.036;2022-12-10T10:42:39;97708.38;;;2.71;72.22
72428;BME280;60419;48.880;18.036;2022-12-10T10:45:42;97700.66;;;2.70;73.18
72428;BME280;60419;48.880;18.036;2022-12-10T10:48:29;97681.19;;;2.88;72.00
72428;BME280;60419;48.880;18.036;2022-12-10T10:51:21;97698.16;;;2.98;71.74
72428;BME280;60419;48.880;18.036;2022-12-10T10:54:10;97698.44;;;2.96;72.41
72428;BME280;60419;48.880;18.036;2022-12-10T10:56:55;97697.56;;;3.01;71.68
72428;BME280;60419;48.880;18.036;2022-12-10T10:59:41;97688.50;;;3.02;72.37
72428;BME280;60419;48.880;18.036;2022-12-10T11:02:30;97682.88;;;2.65;73.25
72428;BME280;60419;48.880;18.036;2022-12-10T11:05:21;97686.41;;;2.99;72.25
72428;BME280;60419;48.880;18.036;2022-12-10T11:08:16;97681.44;;;3.11;72.34
72428;BME280;60419;48.880;18.036;2022-12-10T11:14:21;97690.78;;;3.27;71.71
72428;BME280;60419;48.880;18.036;2022-12-10T11:20:16;97709.03;;;3.01;72.18
72428;BME280;60419;48.880;18.036;2022-12-10T11:23:09;97704.59;;;2.97;72.64
72428;BME280;60419;48.880;18.036;2022-12-10T11:26:21;97702.81;;;3.25;71.19
72428;BME280;60419;48.880;18.036;2022-12-10T11:38:09;97695.13;;;2.85;72.61
72428;BME280;60419;48.880;18.036;2022-12-10T11:41:01;97692.59;;;3.13;72.00
72428;BME280;60419;48.880;18.036;2022-12-10T11:44:02;97689.13;;;2.75;73.03
72428;BME280;60419;48.880;18.036;2022-12-10T11:56:43;97693.81;;;3.72;70.72
72428;BME280;60419;48.880;18.036;2022-12-10T11:59:53;97686.50;;;3.45;71.02
72428;BME280;60419;48.880;18.036;2022-12-10T12:06:40;97681.13;;;3.31;71.23
72428;BME280;60419;48.880;18.036;2022-12-10T12:09:27;97681.69;;;3.61;70.54
72428;BME280;60419;48.880;18.036;2022-12-10T12:12:27;97674.53;;;3.75;70.51
72428;BME280;60419;48.880;18.036;2022-12-10T12:21:16;97664.88;;;3.60;70.36
72428;BME280;60419;48.880;18.036;2022-12-10T12:24:21;97655.97;;;3.51;70.76
72428;BME280;60419;48.880;18.036;2022-12-10T12:27:30;97650.28;;;3.25;71.36
72428;BME280;60419;48.880;18.036;2022-12-10T12:30:20;97647.00;;;3.28;71.01
72428;BME280;60419;48.880;18.036;2022-12-10T12:33:20;97665.81;;;5.93;86.00
72428;BME280;60419;48.880;18.036;2022-12-10T12:36:33;97668.53;;;3.51;70.84
72428;BME280;60419;48.880;18.036;2022-12-10T12:39:46;97671.25;;;3.65;70.25
72428;BME280;60419;48.880;18.036;2022-12-10T12:42:58;97658.75;;;3.46;69.70
72428;BME280;60419;48.880;18.036;2022-12-10T12:45:49;97659.00;;;3.45;70.48
72428;BME280;60419;48.880;18.036;2022-12-10T12:49:02;97671.59;;;3.58;69.78
72428;BME280;60419;48.880;18.036;2022-12-10T12:51:55;97666.50;;;3.62;68.92
72428;BME280;60419;48.880;18.036;2022-12-10T12:54:42;97672.09;;;3.46;69.23
72428;BME280;60419;48.880;18.036;2022-12-10T12:57:38;97667.38;;;3.57;69.62
72428;BME280;60419;48.880;18.036;2022-12-10T13:00:28;97660.72;;;3.22;69.53
72428;BME280;60419;48.880;18.036;2022-12-10T13:03:33;97675.06;;;3.58;67.98
72428;BME280;60419;48.880;18.036;2022-12-10T13:06:25;97677.97;;;3.43;68.95
72428;BME280;60419;48.880;18.036;2022-12-10T13:17:37;97696.69;;;3.90;68.68
72428;BME280;60419;48.880;18.036;2022-12-10T13:26:29;97695.22;;;3.51;68.66
72428;BME280;60419;48.880;18.036;2022-12-10T13:29:26;97705.19;;;3.78;68.83
72428;BME280;60419;48.880;18.036;2022-12-10T13:32:23;97699.63;;;3.74;68.99
72428;BME280;60419;48.880;18.036;2022-12-10T13:37:57;97685.84;;;3.53;68.49
72428;BME280;60419;48.880;18.036;2022-12-10T13:40:58;97688.53;;;3.34;71.46
72428;BME280;60419;48.880;18.036;2022-12-10T13:44:33;97678.63;;;4.14;69.44
72428;BME280;60419;48.880;18.036;2022-12-10T13:50:35;97671.31;;;3.59;70.12
72428;BME280;60419;48.880;18.036;2022-12-10T14:02:23;97676.91;;;3.44;69.98
72428;BME280;60419;48.880;18.036;2022-12-10T14:08:25;97684.16;;;4.04;69.60
72428;BME280;60419;48.880;18.036;2022-12-10T14:11:19;97690.47;;;3.94;70.99
72428;BME280;60419;48.880;18.036;2022-12-10T14:14:11;97686.25;;;3.93;69.12
72428;BME280;60419;48.880;18.036;2022-12-10T14:17:04;97684.44;;;3.89;70.44
72428;BME280;60419;48.880;18.036;2022-12-10T14:19:53;97699.91;;;4.47;69.02
72428;BME280;60419;48.880;18.036;2022-12-10T14:22:50;97707.69;;;5.35;67.68
72428;BME280;60419;48.880;18.036;2022-12-10T14:25:41;97686.75;;;4.37;66.62
72428;BME280;60419;48.880;18.036;2022-12-10T14:28:29;97711.81;;;4.68;67.16
72428;BME280;60419;48.880;18.036;2022-12-10T14:31:20;97714.97;;;4.43;66.90
72428;BME280;60419;48.880;18.036;2022-12-10T14:34:08;97719.25;;;3.83;68.92
72428;BME280;60419;48.880;18.036;2022-12-10T14:36:57;97711.22;;;3.70;70.04
72428;BME280;60419;48.880;18.036;2022-12-10T14:39:43;97705.56;;;3.71;69.43
72428;BME280;60419;48.880;18.036;2022-12-10T14:42:28;97701.22;;;3.43;70.48
72428;BME280;60419;48.880;18.036;2022-12-10T14:45:15;97719.53;;;3.82;69.42
72428;BME280;60419;48.880;18.036;2022-12-10T14:48:00;97693.81;;;3.21;70.85
72428;BME280;60419;48.880;18.036;2022-12-10T14:50:52;97678.41;;;3.18;70.32
72428;BME280;60419;48.880;18.036;2022-12-10T14:53:37;97689.00;;;2.85;71.45
72428;BME280;60419;48.880;18.036;2022-12-10T14:56:29;97682.06;;;3.22;70.75
72428;BME280;60419;48.880;18.036;2022-12-10T14:59:21;97682.72;;;3.13;70.86
72428;BME280;60419;48.880;18.036;2022-12-10T15:02:20;97678.03;;;3.05;70.69
72428;BME280;60419;48.880;18.036;2022-12-10T15:05:17;97670.69;;;2.97;71.08
72428;BME280;60419;48.880;18.036;2022-12-10T15:08:06;97669.88;;;3.15;71.49
72428;BME280;60419;48.880;18.036;2022-12-10T15:10:56;97661.41;;;3.46;69.98
72428;BME280;60419;48.880;18.036;2022-12-10T15:13:48;97663.19;;;3.18;70.28
72428;BME280;60419;48.880;18.036;2022-12-10T15:16:43;97661.16;;;3.10;70.86
72428;BME280;60419;48.880;18.036;2022-12-10T15:25:14;97629.09;;;2.39;71.89
72428;BME280;60419;48.880;18.036;2022-12-10T15:28:04;97657.44;;;2.92;71.63
72428;BME280;60419;48.880;18.036;2022-12-10T15:30:49;97639.81;;;2.91;70.90
72428;BME280;60419;48.880;18.036;2022-12-10T15:33:48;97660.16;;;2.87;71.23
72428;BME280;60419;48.880;18.036;2022-12-10T15:36:38;97642.41;;;2.96;70.65
72428;BME280;60419;48.880;18.036;2022-12-10T15:39:26;97641.84;;;2.80;71.56
72428;BME280;60419;48.880;18.036;2022-12-10T15:42:35;97656.22;;;2.84;71.31
72428;BME280;60419;48.880;18.036;2022-12-10T15:45:24;97654.38;;;2.61;71.26
72428;BME280;60419;48.880;18.036;2022-12-10T15:48:13;97668.38;;;2.71;71.84
72428;BME280;60419;48.880;18.036;2022-12-10T15:50:58;97675.28;;;2.54;71.98
72428;BME280;60419;48.880;18.036;2022-12-10T15:53:44;97669.59;;;2.79;71.61
72428;BME280;60419;48.880;18.036;2022-12-10T15:56:29;97683.19;;;3.02;71.21
72428;BME280;60419;48.880;18.036;2022-12-10T15:59:14;97676.09;;;3.11;71.30
72428;BME280;60419;48.880;18.036;2022-12-10T16:02:00;97682.88;;;3.03;71.04
72428;BME280;60419;48.880;18.036;2022-12-10T16:04:47;97688.66;;;2.91;71.73
72428;BME280;60419;48.880;18.036;2022-12-10T16:07:32;97690.00;;;3.08;70.87
72428;BME280;60419;48.880;18.036;2022-12-10T16:10:20;97673.06;;;2.99;71.18
72428;BME280;60419;48.880;18.036;2022-12-10T16:13:20;97674.38;;;3.20;70.29
72428;BME280;60419;48.880;18.036;2022-12-10T16:16:08;97683.53;;;2.95;70.74
72428;BME280;60419;48.880;18.036;2022-12-10T16:18:54;97679.69;;;2.82;71.14
72428;BME280;60419;48.880;18.036;2022-12-10T16:21:39;97672.00;;;2.81;71.15
72428;BME280;60419;48.880;18.036;2022-12-10T16:24:26;97674.28;;;2.68;71.32
72428;BME280;60419;48.880;18.036;2022-12-10T16:27:17;97676.50;;;2.80;70.58
72428;BME280;60419;48.880;18.036;2022-12-10T16:32:56;97663.03;;;2.71;70.78
72428;BME280;60419;48.880;18.036;2022-12-10T16:35:42;97663.41;;;2.84;71.18
72428;BME280;60419;48.880;18.036;2022-12-10T16:38:27;97668.16;;;2.68;71.66
72428;BME280;60419;48.880;18.036;2022-12-10T16:41:16;97671.75;;;2.58;71.66
72428;BME280;60419;48.880;18.036;2022-12-10T16:44:02;97666.38;;;2.82;71.18